createdAt,value
2019-03-27T00:01:17.263Z,64.29
2019-03-27T00:03:45.307Z,64.30
2019-03-27T00:06:13.039Z,64.40
2019-03-27T00:08:41.149Z,64.41
2019-03-27T00:11:08.872Z,64.69
2019-03-27T00:13:36.534Z,64.79
2019-03-27T00:16:04.221Z,65.13
2019-03-27T00:18:32.112Z,65.61
2019-03-27T00:21:00.346Z,65.97
2019-03-27T00:23:28.098Z,66.07
2019-03-27T00:25:55.838Z,66.46
2019-03-27T00:28:24.603Z,66.56
2019-03-27T00:30:52.288Z,66.99
2019-03-27T00:33:20.463Z,67.26
2019-03-27T00:35:48.570Z,67.49
2019-03-27T00:38:16.316Z,67.93
2019-03-27T00:40:44.023Z,68.35
2019-03-27T00:43:11.801Z,68.32
2019-03-27T00:48:55.226Z,69.29
2019-03-27T00:51:22.958Z,69.79
2019-03-27T00:53:50.701Z,70.06
2019-03-27T00:56:59.020Z,70.48
2019-03-27T00:59:26.721Z,70.72
2019-03-27T01:01:54.481Z,71.09
2019-03-27T01:04:22.208Z,71.21
2019-03-27T01:10:10.968Z,72.14
2019-03-27T01:15:20.033Z,72.31
2019-03-27T01:17:47.638Z,72.41
2019-03-27T01:20:15.387Z,72.71
2019-03-27T01:22:43.121Z,72.61
2019-03-27T01:25:10.965Z,72.36
2019-03-27T01:27:39.038Z,72.20
2019-03-27T01:30:07.065Z,72.00
2019-03-27T01:32:34.814Z,72.59
2019-03-27T01:35:02.616Z,72.30
2019-03-27T01:37:31.496Z,72.50
2019-03-27T01:39:59.289Z,73.11
2019-03-27T01:42:27.044Z,73.75
2019-03-27T01:44:54.777Z,74.49
2019-03-27T01:47:22.403Z,75.07
2019-03-27T01:49:50.160Z,75.47
2019-03-27T01:52:17.803Z,75.93
2019-03-27T01:54:45.529Z,76.16
2019-03-27T01:57:13.372Z,76.58
2019-03-27T01:59:41.117Z,76.90
2019-03-27T02:02:08.873Z,77.25
2019-03-27T02:04:36.585Z,77.43
2019-03-27T02:07:04.419Z,77.56
2019-03-27T02:09:32.157Z,77.69
2019-03-27T02:12:00.259Z,77.70
2019-03-27T02:14:28.265Z,77.85
2019-03-27T02:16:55.886Z,78.21
2019-03-27T02:19:23.600Z,78.61
2019-03-27T02:21:51.409Z,78.77
2019-03-27T02:24:19.146Z,78.90
2019-03-27T02:26:47.273Z,78.93
2019-03-27T02:29:15.038Z,78.76
2019-03-27T02:31:42.740Z,78.91
2019-03-27T02:34:10.532Z,79.06
2019-03-27T02:36:38.302Z,79.10
2019-03-27T02:39:06.042Z,79.40
2019-03-27T02:41:33.914Z,80.30
2019-03-27T02:44:01.664Z,80.38
2019-03-27T02:46:29.376Z,80.73
2019-03-27T02:48:57.059Z,80.61
2019-03-27T02:51:24.777Z,80.61
2019-03-27T02:53:52.550Z,80.80
2019-03-27T02:56:20.371Z,81.08
2019-03-27T02:58:48.142Z,81.28
2019-03-27T03:01:15.825Z,81.50
2019-03-27T03:03:43.570Z,81.75
2019-03-27T03:06:11.339Z,82.01
2019-03-27T03:08:39.022Z,82.48
2019-03-27T03:11:06.763Z,82.73
2019-03-27T03:13:34.527Z,82.87
2019-03-27T03:16:02.449Z,82.95
2019-03-27T03:18:30.143Z,83.00
2019-03-27T03:20:57.838Z,83.14
2019-03-27T03:23:25.522Z,83.41
2019-03-27T03:25:53.227Z,83.62
2019-03-27T03:28:20.985Z,83.82
2019-03-27T03:30:48.826Z,83.91
2019-03-27T03:33:16.628Z,83.91
2019-03-27T03:35:45.290Z,84.04
2019-03-27T03:38:13.010Z,84.19
2019-03-27T03:40:41.087Z,84.29
2019-03-27T03:43:08.789Z,84.26
2019-03-27T03:45:36.485Z,84.48
2019-03-27T03:48:04.124Z,84.49
2019-03-27T03:50:42.760Z,84.24
2019-03-27T03:53:12.470Z,84.24
2019-03-27T03:55:40.906Z,84.24
2019-03-27T03:58:13.556Z,84.11
2019-03-27T04:00:41.738Z,84.27
2019-03-27T04:03:09.919Z,84.30
2019-03-27T04:05:37.549Z,84.52
2019-03-27T04:08:05.217Z,84.60
2019-03-27T04:10:33.009Z,84.47
2019-03-27T04:13:00.742Z,84.51
2019-03-27T04:15:28.845Z,84.69
2019-03-27T04:17:56.472Z,84.65
2019-03-27T04:20:24.404Z,84.62
2019-03-27T04:22:52.138Z,84.44
2019-03-27T04:25:20.348Z,84.48
2019-03-27T04:27:48.066Z,84.58
2019-03-27T04:30:15.974Z,84.27
2019-03-27T04:32:43.721Z,84.01
2019-03-27T04:35:11.661Z,83.82
2019-03-27T04:37:39.354Z,83.94
2019-03-27T04:40:07.504Z,84.15
2019-03-27T04:42:35.492Z,84.37
2019-03-27T04:45:03.354Z,84.65
2019-03-27T04:47:32.424Z,85.05
2019-03-27T04:50:00.494Z,85.44
2019-03-27T04:52:30.268Z,85.68
2019-03-27T04:54:57.932Z,85.60
2019-03-27T04:57:26.135Z,85.58
2019-03-27T04:59:53.871Z,85.50
2019-03-27T05:02:21.569Z,85.51
2019-03-27T05:04:49.491Z,85.59
2019-03-27T05:07:17.294Z,85.74
2019-03-27T05:09:45.391Z,85.92
2019-03-27T05:12:13.127Z,86.04
2019-03-27T05:14:40.873Z,86.23
2019-03-27T05:17:08.745Z,86.43
2019-03-27T05:19:36.796Z,86.52
2019-03-27T05:22:04.491Z,86.52
2019-03-27T05:24:32.249Z,86.53
2019-03-27T05:27:00.295Z,86.42
2019-03-27T05:29:28.068Z,86.34
2019-03-27T05:31:55.842Z,86.33
2019-03-27T05:34:23.624Z,86.34
2019-03-27T05:36:51.228Z,86.25
2019-03-27T05:39:19.294Z,86.04
2019-03-27T05:41:46.915Z,85.68
2019-03-27T05:44:15.036Z,85.25
2019-03-27T05:46:42.796Z,84.80
2019-03-27T05:49:10.662Z,83.73
2019-03-27T05:51:38.444Z,82.99
2019-03-27T05:54:06.154Z,82.66
2019-03-27T05:56:35.959Z,81.85
2019-03-27T05:59:03.808Z,77.20
2019-03-27T06:01:31.554Z,69.28
2019-03-27T06:03:59.512Z,61.35
2019-03-27T06:06:27.222Z,55.37
2019-03-27T06:08:54.953Z,50.33
2019-03-27T06:11:22.751Z,47.88
2019-03-27T06:13:50.500Z,44.80
2019-03-27T06:16:18.547Z,41.88
2019-03-27T06:18:46.269Z,38.06
2019-03-27T06:21:14.015Z,35.63
2019-03-27T06:23:41.609Z,33.50
2019-03-27T06:26:09.351Z,31.58
2019-03-27T06:28:37.445Z,29.55
2019-03-27T06:31:05.179Z,28.62
2019-03-27T06:33:32.959Z,27.19
2019-03-27T06:36:00.609Z,26.74
2019-03-27T06:38:28.215Z,25.43
2019-03-27T06:40:56.089Z,23.92
2019-03-27T06:43:23.819Z,23.04
2019-03-27T06:45:51.601Z,22.80
2019-03-27T06:48:26.062Z,22.07
2019-03-27T06:50:49.904Z,21.04
2019-03-27T06:53:17.601Z,20.58
2019-03-27T06:55:45.380Z,19.66
2019-03-27T06:58:13.480Z,18.74
2019-03-27T07:00:41.607Z,18.08
2019-03-27T07:03:09.300Z,18.27
2019-03-27T07:05:36.958Z,18.92
2019-03-27T07:08:04.732Z,18.90
2019-03-27T07:10:32.458Z,18.50
2019-03-27T07:13:00.348Z,17.88
2019-03-27T07:15:28.086Z,16.79
2019-03-27T07:17:55.941Z,16.00
2019-03-27T07:20:23.662Z,15.33
2019-03-27T07:22:51.410Z,15.41
2019-03-27T07:25:19.182Z,14.66
2019-03-27T07:27:46.913Z,14.55
2019-03-27T07:30:14.745Z,14.48
2019-03-27T07:32:42.848Z,13.99
2019-03-27T07:35:10.579Z,13.75
2019-03-27T07:37:38.280Z,13.28
2019-03-27T07:40:06.895Z,13.14
2019-03-27T07:42:34.647Z,13.01
2019-03-27T07:45:02.655Z,12.59
2019-03-27T07:47:30.276Z,12.18
2019-03-27T07:49:58.287Z,11.54
2019-03-27T07:52:26.395Z,11.24
2019-03-27T07:54:54.123Z,11.15
2019-03-27T07:57:21.828Z,10.99
2019-03-27T07:59:49.587Z,10.76
2019-03-27T08:02:17.616Z,10.42
2019-03-27T08:04:45.335Z,10.36
2019-03-27T08:07:25.911Z,10.50
2019-03-27T08:09:42.767Z,10.64
2019-03-27T08:12:10.531Z,10.38
2019-03-27T08:14:38.256Z,10.25
2019-03-27T08:17:05.997Z,10.01
2019-03-27T08:19:33.693Z,9.93
2019-03-27T08:22:01.787Z,9.56
2019-03-27T08:24:29.548Z,8.45
2019-03-27T08:26:57.276Z,8.83
2019-03-27T08:29:25.276Z,9.96
2019-03-27T08:31:53.046Z,11.02
2019-03-27T08:34:20.675Z,10.93
2019-03-27T08:36:48.698Z,11.02
2019-03-27T08:39:16.316Z,11.43
2019-03-27T08:41:44.430Z,11.73
2019-03-27T08:44:12.162Z,11.01
2019-03-27T08:46:40.174Z,10.11
2019-03-27T08:49:20.745Z,9.35
2019-03-27T08:51:37.970Z,8.74
2019-03-27T08:54:05.805Z,8.96
2019-03-27T08:56:33.551Z,8.54
2019-03-27T08:59:01.276Z,8.63
2019-03-27T09:01:29.404Z,9.47
2019-03-27T09:03:57.165Z,12.10
2019-03-27T09:06:33.499Z,15.30
2019-03-27T09:08:54.625Z,19.11
2019-03-27T09:11:22.543Z,21.65
2019-03-27T09:13:50.266Z,24.06
2019-03-27T09:16:18.139Z,26.10
2019-03-27T09:18:46.245Z,27.28
2019-03-27T09:21:14.073Z,28.89
2019-03-27T09:23:41.808Z,30.93
2019-03-27T09:26:09.440Z,31.45
2019-03-27T09:28:37.175Z,32.81
2019-03-27T09:31:05.060Z,33.25
2019-03-27T09:33:32.789Z,33.51
2019-03-27T09:36:00.450Z,33.91
2019-03-27T09:38:28.252Z,34.29
2019-03-27T09:40:55.883Z,34.18
2019-03-27T09:43:23.611Z,34.85
2019-03-27T09:45:51.348Z,34.13
2019-03-27T09:48:19.058Z,33.66
2019-03-27T09:50:47.080Z,33.91
2019-03-27T09:53:14.843Z,33.92
2019-03-27T09:55:42.937Z,32.83
2019-03-27T09:58:10.989Z,31.34
2019-03-27T10:01:09.935Z,31.38
2019-03-27T10:03:37.674Z,31.95
2019-03-27T10:06:05.417Z,31.84
2019-03-27T10:08:33.488Z,31.89
2019-03-27T10:11:01.195Z,32.68
2019-03-27T10:13:29.179Z,33.18
2019-03-27T10:15:57.015Z,33.96
2019-03-27T10:18:24.973Z,34.43
2019-03-27T10:20:52.621Z,34.48
2019-03-27T10:23:20.340Z,34.51
2019-03-27T10:25:48.089Z,34.58
2019-03-27T10:28:15.841Z,35.20
2019-03-27T10:30:43.607Z,35.96
2019-03-27T10:33:11.343Z,35.72
2019-03-27T10:35:39.346Z,36.51
2019-03-27T10:38:07.080Z,36.68
2019-03-27T10:40:34.814Z,36.25
2019-03-27T10:43:02.563Z,36.66
2019-03-27T10:45:30.337Z,36.39
2019-03-27T10:47:58.085Z,35.94
2019-03-27T10:50:25.801Z,35.52
2019-03-27T10:52:53.962Z,34.92
2019-03-27T10:55:21.687Z,34.53
2019-03-27T10:57:49.405Z,34.25
2019-03-27T11:00:17.187Z,33.71
2019-03-27T11:02:44.909Z,33.97
2019-03-27T11:05:12.761Z,33.78
2019-03-27T11:07:40.509Z,32.31
2019-03-27T11:10:08.951Z,31.52
2019-03-27T11:12:37.683Z,31.26
2019-03-27T11:15:05.884Z,30.95
2019-03-27T11:17:33.605Z,30.07
2019-03-27T11:20:01.411Z,29.31
2019-03-27T11:22:29.336Z,28.68
2019-03-27T11:24:59.920Z,29.05
2019-03-27T11:27:27.822Z,29.24
2019-03-27T11:29:55.611Z,28.98
2019-03-27T11:32:23.955Z,28.72
2019-03-27T11:34:51.702Z,28.94
2019-03-27T11:37:20.239Z,28.71
2019-03-27T11:39:48.005Z,28.42
2019-03-27T11:42:15.681Z,28.55
2019-03-27T11:44:44.103Z,28.96
2019-03-27T11:47:12.141Z,28.37
2019-03-27T11:49:40.257Z,27.79
2019-03-27T11:52:07.867Z,29.26
2019-03-27T11:54:35.609Z,29.57
2019-03-27T11:57:03.417Z,29.03
2019-03-27T11:59:31.510Z,29.67
2019-03-27T12:01:59.275Z,28.65
2019-03-27T12:04:26.989Z,28.44
2019-03-27T12:06:54.725Z,28.15
2019-03-27T12:09:22.854Z,28.35
2019-03-27T12:11:50.570Z,28.87
2019-03-27T12:14:18.715Z,28.58
2019-03-27T12:16:49.735Z,28.54
2019-03-27T12:19:16.502Z,28.51
2019-03-27T12:21:44.318Z,28.97
2019-03-27T12:24:12.068Z,28.82
2019-03-27T12:26:39.792Z,28.96
2019-03-27T12:29:07.480Z,29.06
2019-03-27T12:31:35.574Z,29.46
2019-03-27T12:34:03.244Z,28.76
2019-03-27T12:36:31.015Z,28.41
2019-03-27T12:38:58.763Z,29.38
2019-03-27T12:41:26.496Z,29.08
2019-03-27T12:43:54.262Z,28.06
2019-03-27T12:46:21.964Z,28.58
2019-03-27T12:48:49.901Z,28.92
2019-03-27T12:51:18.269Z,29.39
2019-03-27T12:53:46.023Z,29.95
2019-03-27T12:56:13.753Z,29.89
2019-03-27T12:58:41.559Z,30.32
2019-03-27T13:01:09.274Z,31.51
2019-03-27T13:03:37.016Z,31.52
2019-03-27T13:06:04.809Z,32.20
2019-03-27T13:08:32.527Z,32.68
2019-03-27T13:11:00.277Z,33.17
2019-03-27T13:13:28.107Z,33.29
2019-03-27T13:15:55.815Z,33.74
2019-03-27T13:18:23.532Z,33.55
2019-03-27T13:20:51.172Z,33.83
2019-03-27T13:23:19.333Z,33.77
2019-03-27T13:28:49.409Z,33.99
2019-03-27T13:31:24.719Z,33.66
2019-03-27T13:36:53.864Z,32.66
2019-03-27T13:39:21.554Z,32.11
2019-03-27T13:44:49.487Z,30.94
2019-03-27T13:47:17.097Z,30.67
2019-03-27T13:49:45.609Z,30.66
2019-03-27T13:52:13.398Z,30.77
2019-03-27T13:57:23.707Z,30.44
2019-03-27T13:59:51.558Z,31.09
2019-03-27T14:02:19.291Z,30.34
2019-03-27T14:04:47.062Z,30.03
2019-03-27T14:07:15.178Z,30.09
2019-03-27T14:09:42.916Z,29.82
2019-03-27T14:12:11.690Z,29.66
2019-03-27T14:14:49.564Z,29.67
2019-03-27T14:17:09.036Z,29.86
2019-03-27T14:19:36.769Z,30.80
2019-03-27T14:22:04.468Z,30.92
2019-03-27T14:24:32.517Z,31.11
2019-03-27T14:27:00.323Z,31.73
2019-03-27T14:29:28.057Z,31.88
2019-03-27T14:31:56.170Z,31.79
2019-03-27T14:34:23.821Z,31.84
2019-03-27T14:36:51.556Z,32.01
2019-03-27T14:39:19.181Z,32.07
2019-03-27T14:41:46.963Z,31.63
2019-03-27T14:44:14.762Z,31.79
2019-03-27T14:46:42.517Z,31.75
2019-03-27T14:49:10.283Z,31.85
2019-03-27T14:51:38.432Z,31.94
2019-03-27T14:54:06.210Z,32.41
2019-03-27T14:56:34.023Z,33.41
2019-03-27T14:59:01.755Z,34.19
2019-03-27T15:01:29.795Z,34.85
2019-03-27T15:03:58.564Z,35.17
2019-03-27T15:06:26.292Z,35.20
2019-03-27T15:08:54.424Z,35.30
2019-03-27T15:11:22.193Z,35.37
2019-03-27T15:13:49.903Z,35.46
2019-03-27T15:16:18.285Z,35.60
2019-03-27T15:18:46.170Z,35.67
2019-03-27T15:21:13.922Z,35.43
2019-03-27T15:23:41.656Z,35.33
2019-03-27T15:26:09.414Z,35.57
2019-03-27T15:28:37.154Z,35.60
2019-03-27T15:31:04.992Z,35.72
2019-03-27T15:33:32.768Z,36.32
2019-03-27T15:36:00.757Z,36.49
2019-03-27T15:38:28.668Z,37.34
2019-03-27T15:40:56.440Z,37.61
2019-03-27T15:43:24.171Z,38.55
2019-03-27T15:45:51.890Z,38.52
2019-03-27T15:48:19.649Z,39.29
2019-03-27T15:50:55.535Z,39.88
2019-03-27T15:53:17.244Z,39.84
2019-03-27T15:55:45.289Z,40.41
2019-03-27T15:58:13.046Z,40.71
2019-03-27T16:00:41.125Z,41.17
2019-03-27T16:03:08.891Z,41.40
2019-03-27T16:05:36.521Z,41.64
2019-03-27T16:08:04.254Z,41.53
2019-03-27T16:10:32.111Z,41.67
2019-03-27T16:12:59.984Z,41.74
2019-03-27T16:15:27.657Z,41.59
2019-03-27T16:17:55.338Z,41.89
2019-03-27T16:20:23.131Z,41.52
2019-03-27T16:22:51.379Z,41.51
2019-03-27T16:25:19.177Z,41.64
2019-03-27T16:27:47.471Z,41.99
2019-03-27T16:30:17.168Z,42.45
2019-03-27T16:32:45.438Z,42.32
2019-03-27T16:35:13.832Z,42.61
2019-03-27T16:37:41.577Z,43.18
2019-03-27T16:40:09.876Z,43.25
2019-03-27T16:42:38.021Z,43.39
2019-03-27T16:45:06.358Z,43.74
2019-03-27T16:47:34.252Z,44.45
2019-03-27T16:50:01.996Z,44.29
2019-03-27T16:52:29.856Z,44.64
2019-03-27T16:54:57.532Z,44.87
2019-03-27T16:57:25.248Z,45.71
2019-03-27T16:59:53.010Z,45.84
2019-03-27T17:02:20.814Z,46.23
2019-03-27T17:04:48.540Z,46.63
2019-03-27T17:07:16.352Z,47.23
2019-03-27T17:09:44.204Z,47.29
2019-03-27T17:12:12.254Z,47.02
2019-03-27T17:14:40.001Z,47.08
2019-03-27T17:17:08.027Z,47.54
2019-03-27T17:19:35.774Z,47.80
2019-03-27T17:22:03.542Z,47.97
2019-03-27T17:24:31.334Z,48.33
2019-03-27T17:26:59.097Z,48.14
2019-03-27T17:29:27.497Z,48.13
2019-03-27T17:31:55.213Z,48.64
2019-03-27T17:34:22.927Z,48.88
2019-03-27T17:36:50.641Z,49.08
2019-03-27T17:39:18.906Z,49.38
2019-03-27T17:41:46.602Z,49.77
2019-03-27T17:44:14.479Z,50.11
2019-03-27T17:46:42.597Z,50.50
2019-03-27T17:49:10.321Z,50.27
2019-03-27T17:51:38.313Z,50.43
2019-03-27T17:54:19.608Z,50.94
2019-03-27T17:56:36.125Z,51.10
2019-03-27T17:59:04.023Z,51.39
2019-03-27T18:01:31.839Z,51.78
2019-03-27T18:03:59.595Z,52.17
2019-03-27T18:06:27.319Z,52.28
2019-03-27T18:08:55.081Z,52.30
2019-03-27T18:11:22.830Z,52.30
2019-03-27T18:13:50.623Z,52.69
2019-03-27T18:16:18.703Z,53.05
2019-03-27T18:18:46.523Z,53.56
2019-03-27T18:21:14.472Z,54.26
2019-03-27T18:23:46.243Z,54.55
2019-03-27T18:26:14.116Z,54.96
2019-03-27T18:28:41.933Z,55.11
2019-03-27T18:31:09.869Z,55.47
2019-03-27T18:33:37.591Z,56.02
2019-03-27T18:36:05.281Z,56.29
2019-03-27T18:38:33.080Z,56.77
2019-03-27T18:41:01.077Z,57.19
2019-03-27T18:43:29.288Z,57.53
2019-03-27T18:45:56.997Z,57.88
2019-03-27T18:48:25.086Z,58.37
2019-03-27T18:50:52.835Z,58.69
2019-03-27T18:53:20.602Z,59.37
2019-03-27T18:55:48.482Z,59.63
2019-03-27T18:58:16.205Z,59.28
2019-03-27T19:00:44.122Z,59.37
2019-03-27T19:03:11.938Z,59.58
2019-03-27T19:05:39.591Z,59.86
2019-03-27T19:08:07.345Z,60.25
2019-03-27T19:10:35.358Z,60.70
2019-03-27T19:13:03.132Z,61.06
2019-03-27T19:15:30.857Z,60.99
2019-03-27T19:17:58.467Z,61.03
2019-03-27T19:20:26.683Z,60.84
2019-03-27T19:22:54.463Z,60.78
2019-03-27T19:25:22.683Z,60.63
2019-03-27T19:27:50.540Z,60.76
2019-03-27T19:30:18.681Z,61.02
2019-03-27T19:32:46.361Z,61.42
2019-03-27T19:35:14.506Z,61.53
2019-03-27T19:37:42.281Z,61.76
2019-03-27T19:40:10.478Z,61.93
2019-03-27T19:42:38.224Z,62.18
2019-03-27T19:45:07.153Z,62.21
2019-03-27T19:47:34.850Z,62.17
2019-03-27T19:50:03.183Z,62.05
2019-03-27T19:52:30.839Z,62.05
2019-03-27T19:54:58.608Z,62.07
2019-03-27T19:57:26.680Z,62.25
2019-03-27T19:59:57.669Z,62.38
2019-03-27T20:02:25.576Z,62.71
2019-03-27T20:04:53.510Z,62.70
2019-03-27T20:07:21.389Z,62.82
2019-03-27T20:09:49.187Z,63.23
2019-03-27T20:12:17.079Z,63.13
2019-03-27T20:14:44.917Z,63.59
2019-03-27T20:17:12.631Z,63.95
2019-03-27T20:19:40.445Z,64.29
2019-03-27T20:22:08.249Z,63.94
2019-03-27T20:24:41.232Z,63.53
2019-03-27T20:27:06.478Z,63.87
2019-03-27T20:29:34.324Z,64.75
2019-03-27T20:32:02.371Z,64.93
2019-03-27T20:34:30.106Z,65.52
2019-03-27T20:36:57.955Z,66.30
2019-03-27T20:39:25.614Z,66.42
2019-03-27T20:41:53.427Z,66.56
2019-03-27T20:44:21.320Z,66.87
2019-03-27T20:46:49.200Z,66.98
2019-03-27T20:49:17.048Z,67.67
2019-03-27T20:51:44.848Z,67.93
2019-03-27T20:54:12.650Z,68.15
2019-03-27T20:56:40.448Z,68.55
2019-03-27T20:59:08.596Z,68.69
2019-03-27T21:01:36.318Z,69.05
2019-03-27T21:04:04.095Z,69.04
2019-03-27T21:06:32.282Z,69.00
2019-03-27T21:09:00.055Z,69.15
2019-03-27T21:11:27.854Z,69.30
2019-03-27T21:13:55.620Z,69.67
2019-03-27T21:16:23.699Z,70.09
2019-03-27T21:18:51.416Z,70.27
2019-03-27T21:21:19.251Z,70.24
2019-03-27T21:23:47.048Z,70.47
2019-03-27T21:26:14.674Z,70.73
2019-03-27T21:28:42.461Z,70.93
2019-03-27T21:31:10.581Z,71.30
2019-03-27T21:33:38.357Z,71.65
2019-03-27T21:36:06.130Z,71.95
2019-03-27T21:38:33.845Z,72.06
2019-03-27T21:41:01.597Z,72.10
2019-03-27T21:43:29.363Z,72.30
2019-03-27T21:45:57.051Z,72.49
2019-03-27T21:48:24.840Z,72.58
2019-03-27T21:50:52.833Z,72.77
2019-03-27T21:53:20.581Z,73.10
2019-03-27T21:55:48.307Z,72.96
2019-03-27T21:58:16.089Z,73.00
2019-03-27T22:00:43.805Z,73.07
2019-03-27T22:03:11.552Z,73.33
2019-03-27T22:05:39.194Z,73.73
2019-03-27T22:08:07.578Z,73.70
2019-03-27T22:10:35.560Z,73.75
2019-03-27T22:13:03.347Z,74.06
2019-03-27T22:15:31.502Z,74.01
2019-03-27T22:17:59.152Z,74.31
2019-03-27T22:20:27.274Z,74.49
2019-03-27T22:22:54.954Z,74.98
2019-03-27T22:25:35.408Z,75.20
2019-03-27T22:27:52.657Z,75.34
2019-03-27T22:30:20.352Z,76.23
2019-03-27T22:32:48.081Z,76.18
2019-03-27T22:35:15.813Z,76.57
2019-03-27T22:37:43.566Z,76.69
2019-03-27T22:40:11.314Z,76.44
2019-03-27T22:42:39.036Z,76.03
2019-03-27T22:45:06.990Z,75.82
2019-03-27T22:47:34.725Z,75.70
2019-03-27T22:50:02.989Z,75.84
2019-03-27T22:52:31.101Z,75.94
2019-03-27T22:54:58.887Z,76.09
2019-03-27T22:57:26.698Z,76.22
2019-03-27T22:59:54.358Z,76.09
2019-03-27T23:02:22.182Z,76.20
2019-03-27T23:04:52.098Z,76.37
2019-03-27T23:07:19.751Z,76.65
2019-03-27T23:09:47.468Z,76.91
2019-03-27T23:12:15.260Z,76.99
2019-03-27T23:14:42.998Z,76.89
2019-03-27T23:17:10.619Z,77.10
2019-03-27T23:19:38.743Z,77.01
2019-03-27T23:22:06.592Z,77.11
2019-03-27T23:24:34.304Z,77.55
2019-03-27T23:27:02.067Z,77.45
2019-03-27T23:29:29.819Z,77.30
2019-03-27T23:31:57.559Z,77.57
2019-03-27T23:34:25.305Z,77.72
2019-03-27T23:36:52.958Z,77.89
2019-03-27T23:39:20.674Z,78.12
2019-03-27T23:41:48.334Z,78.42
2019-03-27T23:44:16.088Z,78.57
2019-03-27T23:46:43.817Z,78.55
2019-03-27T23:49:12.189Z,78.62
2019-03-27T23:51:40.321Z,78.84
2019-03-27T23:54:08.184Z,78.86
2019-03-27T23:56:35.922Z,78.97
2019-03-27T23:59:03.696Z,79.20
